Time;durP1;ratioP1;P1;durP2;ratioP2;P2;SDS_P1;SDS_P2;PMS_P1;PMS_P2;Temp;Humidity;BMP_temperature;BMP_pressure;BME280_temperature;BME280_humidity;BME280_pressure;Samples;Min_cycle;Max_cycle;Signal;HPM_P1;HPM_P2
2022/08/21 00:00:17;;;;;;;34.20;26.65;;;;;;;18.03;46.96;100466.50;5062703;28;20029;-55
2022/08/21 00:02:49;;;;;;;35.92;27.55;;;;;;;17.79;47.29;100455.19;5061945;28;20059;-56
2022/08/21 00:05:15;;;;;;;35.10;26.15;;;;;;;18.35;47.08;100501.06;5062845;28;20083;-55
2022/08/21 00:07:40;;;;;;;39.05;26.02;;;;;;;18.18;46.76;100503.50;5062710;28;20310;-55
2022/08/21 00:10:07;;;;;;;38.78;26.33;;;;;;;18.15;47.00;100503.66;5042720;28;20028;-55
2022/08/21 00:12:32;;;;;;;34.47;26.70;;;;;;;18.04;47.19;100501.44;5067429;28;20021;-55
2022/08/21 00:14:58;;;;;;;38.97;27.05;;;;;;;18.01;47.45;100498.94;5062647;28;20029;-54
2022/08/21 00:17:24;;;;;;;38.40;25.33;;;;;;;18.02;47.55;100498.88;5062391;28;20328;-54
2022/08/21 00:19:50;;;;;;;36.92;26.25;;;;;;;18.18;47.34;100501.75;5062457;28;20037;-55
2022/08/21 00:22:17;;;;;;;36.78;26.02;;;;;;;18.00;47.77;100500.72;5062937;28;20325;-55
2022/08/21 00:24:42;;;;;;;35.28;26.08;;;;;;;18.11;47.29;100503.78;5078908;28;20044;-55
2022/08/21 00:27:08;;;;;;;38.92;27.80;;;;;;;18.03;47.32;100503.22;5058426;28;20041;-55
2022/08/21 00:29:34;;;;;;;35.38;27.08;;;;;;;18.07;47.04;100502.19;5054574;28;20032;-55
2022/08/21 00:31:59;;;;;;;35.95;26.80;;;;;;;18.14;47.73;100504.56;5066027;28;20356;-54
2022/08/21 00:34:26;;;;;;;40.90;28.80;;;;;;;17.97;47.68;100494.72;5066047;28;20036;-54
2022/08/21 00:36:51;;;;;;;43.67;27.55;;;;;;;17.88;47.56;100465.31;5048761;28;20033;-55
2022/08/21 00:39:17;;;;;;;36.05;26.05;;;;;;;18.16;46.95;100494.88;5045600;28;20111;-55
2022/08/21 00:41:43;;;;;;;34.35;25.08;;;;;;;18.15;47.04;100493.16;5046096;28;20465;-54
2022/08/21 00:44:12;;;;;;;36.10;25.92;;;;;;;17.72;46.73;100440.63;5045893;28;20060;-56
2022/08/21 00:46:38;;;;;;;38.72;25.38;;;;;;;18.05;47.44;100490.03;5045707;28;20089;-55
2022/08/21 00:49:06;;;;;;;32.35;24.38;;;;;;;17.83;47.46;100488.22;5065005;28;20186;-55
2022/08/21 00:51:37;;;;;;;36.70;25.42;;;;;;;17.81;47.36;100481.34;5051004;28;20021;-55
2022/08/21 00:54:04;;;;;;;34.03;25.42;;;;;;;17.95;47.42;100489.53;5044735;28;20267;-55
2022/08/21 00:56:30;;;;;;;35.58;25.33;;;;;;;17.91;47.78;100490.56;5065431;28;20055;-55
2022/08/21 00:58:57;;;;;;;37.47;24.48;;;;;;;17.75;47.72;100490.28;5065448;28;20237;-56
2022/08/21 01:01:23;;;;;;;33.25;25.42;;;;;;;17.84;48.07;100496.94;5065835;28;20021;-56
2022/08/21 01:03:49;;;;;;;32.63;24.77;;;;;;;17.89;47.57;100487.16;5065425;28;20071;-56
2022/08/21 01:06:15;;;;;;;33.55;24.33;;;;;;;17.90;47.67;100488.81;5061253;28;20029;-56
2022/08/21 01:08:41;;;;;;;29.38;22.55;;;;;;;17.99;46.98;100482.44;5065433;28;20309;-56
2022/08/21 01:11:07;;;;;;;32.72;23.98;;;;;;;18.04;47.22;100489.19;5062321;28;20368;-56
2022/08/21 01:13:36;;;;;;;36.65;23.00;;;;;;;17.96;46.90;100488.66;5045438;28;20094;-56
2022/08/21 01:16:05;;;;;;;35.70;25.25;;;;;;;17.75;47.50;100493.75;5048233;28;20053;-57
2022/08/21 01:18:31;;;;;;;32.40;24.75;;;;;;;17.86;47.57;100501.22;5050816;28;20033;-57
2022/08/21 01:21:01;;;;;;;31.55;24.13;;;;;;;17.93;47.68;100494.84;5045185;28;20036;-56
2022/08/21 01:23:27;;;;;;;32.53;23.77;;;;;;;18.09;47.06;100499.50;5045312;28;20084;-56
2022/08/21 01:25:52;;;;;;;32.55;24.45;;;;;;;17.91;47.64;100494.06;5044787;28;20349;-58
2022/08/21 01:28:20;;;;;;;37.10;25.90;;;;;;;17.49;47.70;100438.91;5047072;28;20064;-57
2022/08/21 01:30:47;;;;;;;31.77;23.95;;;;;;;17.91;47.14;100490.56;5064948;28;20040;-57
2022/08/21 01:33:12;;;;;;;32.97;24.17;;;;;;;17.85;47.45;100488.16;5064924;28;20101;-57
2022/08/21 01:35:38;;;;;;;34.20;23.88;;;;;;;17.44;48.70;100496.66;5064866;28;20021;-57
2022/08/21 01:38:04;;;;;;;35.38;23.98;;;;;;;17.79;47.81;100486.63;5062002;28;20025;-56
2022/08/21 01:40:30;;;;;;;33.67;25.10;;;;;;;17.63;47.91;100482.88;5044960;28;20056;-56
2022/08/21 01:42:55;;;;;;;34.55;23.90;;;;;;;17.73;48.46;100484.25;5043823;28;20321;-57
2022/08/21 01:45:21;;;;;;;37.05;25.95;;;;;;;17.36;48.69;100483.88;5067570;28;20088;-56
2022/08/21 01:47:47;;;;;;;36.25;26.02;;;;;;;17.45;49.29;100481.81;5064632;28;20321;-57
2022/08/21 01:50:17;;;;;;;37.05;26.70;;;;;;;17.31;48.51;100464.84;5064459;28;20035;-57
2022/08/21 01:52:43;;;;;;;35.22;26.58;;;;;;;17.51;48.70;100486.81;5064793;28;20095;-56
2022/08/21 01:55:11;;;;;;;34.50;25.38;;;;;;;17.65;47.64;100471.44;5064506;28;20353;-56
2022/08/21 01:57:36;;;;;;;37.55;27.65;;;;;;;17.46;48.62;100473.03;5049553;28;20032;-56
2022/08/21 02:00:05;;;;;;;37.15;26.38;;;;;;;17.60;48.62;100492.59;5043290;28;20022;-56
2022/08/21 02:02:31;;;;;;;36.03;26.45;;;;;;;17.47;48.61;100486.06;5048462;28;20385;-56
2022/08/21 02:04:56;;;;;;;41.42;29.23;;;;;;;17.32;48.83;100477.03;5063241;28;20025;-56
2022/08/21 02:07:22;;;;;;;39.13;28.63;;;;;;;17.41;49.46;100491.56;5044515;28;20060;-56
2022/08/21 02:09:48;;;;;;;34.67;28.70;;;;;;;17.54;48.74;100487.59;5060613;28;20033;-56
2022/08/21 02:12:13;;;;;;;37.33;29.13;;;;;;;17.59;48.63;100496.09;5052493;28;20029;-56
2022/08/21 02:14:39;;;;;;;39.20;31.00;;;;;;;17.32;49.04;100492.75;5044163;28;20210;-55
2022/08/21 02:17:04;;;;;;;44.45;32.05;;;;;;;17.26;48.88;100492.97;5044120;28;20302;-57
2022/08/21 02:19:30;;;;;;;38.63;30.98;;;;;;;17.39;49.06;100478.50;5044221;28;20036;-56
2022/08/21 02:21:56;;;;;;;40.45;31.65;;;;;;;17.37;48.95;100490.81;5043957;28;20029;-56
2022/08/21 02:24:21;;;;;;;47.00;32.25;;;;;;;17.28;49.21;100495.53;5044074;28;20250;-56
2022/08/21 02:26:47;;;;;;;42.83;32.40;;;;;;;17.40;49.09;100503.81;5043888;28;20093;-55
2022/08/21 02:29:13;;;;;;;42.85;32.38;;;;;;;17.47;49.09;100507.03;5052945;28;20077;-56
2022/08/21 02:31:38;;;;;;;45.22;31.88;;;;;;;17.42;48.79;100488.88;5062474;28;20040;-56
2022/08/21 02:34:04;;;;;;;42.72;32.75;;;;;;;17.29;49.37;100497.22;5063690;28;20052;-57
2022/08/21 02:36:31;;;;;;;41.55;32.70;;;;;;;17.38;49.13;100497.75;5076875;28;20032;-56
2022/08/21 02:38:56;;;;;;;47.80;34.65;;;;;;;17.33;48.84;100504.06;5065305;28;20041;-57
2022/08/21 02:41:23;;;;;;;48.70;34.92;;;;;;;17.21;49.31;100500.13;5046912;28;20028;-55
2022/08/21 02:43:49;;;;;;;47.80;34.92;;;;;;;17.18;49.88;100495.00;5063701;28;20131;-56
2022/08/21 02:46:18;;;;;;;44.13;35.10;;;;;;;17.10;50.00;100489.19;5043404;28;20044;-56
2022/08/21 02:48:44;;;;;;;45.95;34.17;;;;;;;17.27;49.30;100499.06;5059028;28;20033;-55
2022/08/21 02:51:17;;;;;;;47.97;36.67;;;;;;;17.28;49.67;100513.88;5052537;28;20056;-55
2022/08/21 02:53:44;;;;;;;46.25;34.72;;;;;;;17.36;49.74;100503.97;5044082;28;20033;-55
2022/08/21 02:56:12;;;;;;;47.97;35.50;;;;;;;17.34;49.67;100501.38;5057922;28;20318;-55
2022/08/21 02:58:41;;;;;;;48.17;35.33;;;;;;;17.22;49.31;100466.03;5042367;28;20217;-55
2022/08/21 03:01:09;;;;;;;49.10;35.38;;;;;;;17.46;49.93;100507.97;5043429;28;20064;-55
2022/08/21 03:03:37;;;;;;;55.83;37.38;;;;;;;17.25;49.90;100504.34;5043411;28;20309;-55
2022/08/21 03:06:04;;;;;;;48.58;36.40;;;;;;;17.37;49.55;100513.50;5043397;28;20029;-55
2022/08/21 03:08:30;;;;;;;51.40;38.03;;;;;;;17.37;49.64;100511.78;5048615;28;20032;-54
2022/08/21 03:10:56;;;;;;;50.22;39.38;;;;;;;17.23;49.52;100506.19;5062488;28;20051;-55
2022/08/21 03:13:21;;;;;;;53.85;40.22;;;;;;;17.37;49.15;100503.91;5043463;28;20060;-55
2022/08/21 03:15:49;;;;;;;51.97;41.15;;;;;;;17.34;49.63;100505.78;5043145;28;20029;-54
2022/08/21 03:18:14;;;;;;;56.25;41.50;;;;;;;17.31;49.57;100504.13;5043341;28;20085;-55
2022/08/21 03:20:41;;;;;;;56.35;41.72;;;;;;;17.42;49.29;100507.19;5056182;28;20048;-55
2022/08/21 03:23:07;;;;;;;56.30;42.15;;;;;;;17.52;49.36;100512.13;5082938;28;20028;-56
2022/08/21 03:25:34;;;;;;;57.45;42.40;;;;;;;17.28;49.65;100506.00;5062559;28;20032;-56
2022/08/21 03:28:01;;;;;;;61.92;41.85;;;;;;;17.50;49.10;100508.69;5063104;28;20148;-55
2022/08/21 03:30:28;;;;;;;58.92;43.65;;;;;;;17.40;49.79;100511.66;5062728;28;20029;-55
2022/08/21 03:32:53;;;;;;;55.38;42.13;;;;;;;17.40;49.61;100503.81;5054487;28;20029;-56
2022/08/21 03:35:20;;;;;;;59.92;44.15;;;;;;;17.47;49.14;100517.50;5042584;28;20348;-56
2022/08/21 03:37:46;;;;;;;60.50;43.38;;;;;;;17.29;49.61;100518.16;5042823;28;20063;-56
2022/08/21 03:40:15;;;;;;;59.97;45.28;;;;;;;17.45;49.99;100500.16;5043061;28;20049;-55
2022/08/21 03:42:40;;;;;;;59.33;45.17;;;;;;;17.63;49.21;100516.94;5043232;28;20057;-55
2022/08/21 03:45:07;;;;;;;56.00;43.65;;;;;;;17.69;49.06;100514.94;5059491;28;20370;-56
2022/08/21 03:47:34;;;;;;;65.65;46.78;;;;;;;17.49;49.41;100520.09;5053292;28;20025;-55
2022/08/21 03:50:01;;;;;;;60.90;46.50;;;;;;;17.74;49.05;100526.13;5080057;28;20040;-56
2022/08/21 03:52:26;;;;;;;55.97;43.78;;;;;;;17.77;48.87;100526.00;5042964;28;20067;-55
2022/08/21 03:54:52;;;;;;;64.25;47.38;;;;;;;17.71;48.71;100520.97;5049083;28;20021;-56
2022/08/21 03:57:18;;;;;;;64.18;46.78;;;;;;;17.80;49.03;100525.03;5074151;28;20035;-56
2022/08/21 03:59:44;;;;;;;69.15;49.33;;;;;;;17.91;48.64;100511.53;5069272;28;20037;-56
2022/08/21 04:02:10;;;;;;;72.82;50.47;;;;;;;17.85;48.28;100515.22;5044289;28;20025;-56
2022/08/21 04:04:36;;;;;;;61.70;49.40;;;;;;;17.80;48.71;100516.31;5062785;28;20031;-56
2022/08/21 04:07:02;;;;;;;70.22;50.40;;;;;;;17.65;48.83;100510.72;5066693;28;20037;-56
2022/08/21 04:09:29;;;;;;;70.90;49.55;;;;;;;17.69;48.68;100504.47;5053533;28;20045;-56
2022/08/21 04:11:56;;;;;;;59.60;45.80;;;;;;;18.10;48.50;100517.78;5046538;28;20039;-56
2022/08/21 04:14:22;;;;;;;68.30;49.03;;;;;;;18.03;48.61;100503.22;5046470;28;20108;-56
2022/08/21 04:16:48;;;;;;;74.43;50.53;;;;;;;17.87;48.31;100502.06;5046230;28;20310;-56
2022/08/21 04:19:14;;;;;;;65.78;50.42;;;;;;;18.08;48.58;100511.72;5046223;28;20133;-55
2022/08/21 04:21:40;;;;;;;67.75;50.55;;;;;;;18.20;48.31;100517.41;5046351;28;20025;-57
2022/08/21 04:24:08;;;;;;;71.15;51.35;;;;;;;18.10;47.33;100509.91;5046170;28;20028;-57
2022/08/21 04:26:38;;;;;;;72.55;52.25;;;;;;;18.24;47.84;100512.00;5056586;28;20089;-57
2022/08/21 04:29:06;;;;;;;67.43;49.75;;;;;;;18.20;48.01;100512.16;5060269;28;20035;-57
2022/08/21 04:31:33;;;;;;;67.78;51.38;;;;;;;18.36;47.23;100515.88;5049583;28;20049;-57
2022/08/21 04:33:59;;;;;;;68.10;52.50;;;;;;;18.39;47.16;100517.53;5046060;28;20053;-58
2022/08/21 04:36:25;;;;;;;66.32;50.08;;;;;;;18.43;47.68;100519.97;5070250;28;20061;-57
2022/08/21 04:38:51;;;;;;;67.75;51.30;;;;;;;18.38;47.44;100527.16;5085881;28;20090;-57
2022/08/21 04:41:17;;;;;;;68.13;49.63;;;;;;;18.07;47.11;100517.91;5078512;28;20032;-57
2022/08/21 04:43:42;;;;;;;65.90;48.67;;;;;;;18.33;47.00;100526.50;5085958;28;20089;-57
2022/08/21 04:46:08;;;;;;;70.43;51.63;;;;;;;18.34;47.27;100524.72;5049366;28;20258;-56
2022/08/21 04:48:34;;;;;;;68.10;50.75;;;;;;;18.51;47.35;100522.25;5045810;28;20029;-56
2022/08/21 04:51:07;;;;;;;68.78;51.17;;;;;;;18.41;47.63;100524.44;5054245;28;20028;-56
2022/08/21 04:54:02;;;;;;;65.88;50.50;;;;;;;18.40;47.45;100524.50;5064342;28;20025;-56
2022/08/21 04:56:35;;;;;;;69.78;51.15;;;;;;;18.33;46.63;100525.63;5060550;28;20040;-56
2022/08/21 04:59:06;;;;;;;65.75;50.47;;;;;;;18.14;47.81;100496.69;5046811;28;20025;-56
2022/08/21 05:01:35;;;;;;;69.28;50.63;;;;;;;18.25;47.03;100474.34;5065059;28;20222;-56
2022/08/21 05:04:04;;;;;;;69.43;50.60;;;;;;;18.49;47.50;100487.38;5049904;28;20036;-56
2022/08/21 05:06:33;;;;;;;66.70;50.03;;;;;;;18.60;46.79;100486.94;5052884;28;20033;-56
2022/08/21 05:09:00;;;;;;;68.97;48.38;;;;;;;19.01;46.40;100526.38;5053729;28;20092;-55
2022/08/21 05:11:25;;;;;;;65.45;51.05;;;;;;;18.95;45.88;100511.72;5061639;28;20018;-56
2022/08/21 05:13:51;;;;;;;69.07;52.13;;;;;;;19.09;46.03;100524.25;5045386;28;20041;-56
2022/08/21 05:16:17;;;;;;;70.05;51.67;;;;;;;19.10;45.52;100514.63;5044447;28;20326;-55
2022/08/21 05:18:43;;;;;;;64.10;49.22;;;;;;;19.35;46.19;100519.63;5045034;28;20334;-55
2022/08/21 05:21:09;;;;;;;65.68;49.65;;;;;;;19.37;45.99;100522.16;5044127;28;20092;-55
2022/08/21 05:23:36;;;;;;;61.20;48.95;;;;;;;19.54;45.41;100518.78;5045361;28;20097;-56
2022/08/21 05:26:02;;;;;;;69.90;50.30;;;;;;;19.65;46.34;100516.53;5045622;28;20029;-55
2022/08/21 05:28:27;;;;;;;66.50;48.10;;;;;;;19.77;44.99;100518.59;5081995;28;20017;-55
2022/08/21 05:30:53;;;;;;;66.15;49.17;;;;;;;19.63;44.69;100510.50;5065006;28;20028;-56
2022/08/21 05:33:19;;;;;;;63.50;48.10;;;;;;;19.57;43.83;100513.41;5065164;28;20222;-56
2022/08/21 05:35:45;;;;;;;66.05;49.85;;;;;;;19.65;43.81;100506.88;5064943;28;20020;-56
2022/08/21 05:38:11;;;;;;;63.70;48.53;;;;;;;19.88;44.28;100507.63;5064542;28;20025;-55
2022/08/21 05:40:36;;;;;;;63.03;48.38;;;;;;;20.08;43.81;100511.06;5044829;28;20048;-56
2022/08/21 05:43:03;;;;;;;61.53;48.58;;;;;;;19.90;43.57;100504.94;5078367;28;20232;-56
2022/08/21 05:45:32;;;;;;;67.22;47.85;;;;;;;20.06;43.43;100497.16;5069588;28;20044;-56
2022/08/21 05:47:58;;;;;;;60.88;47.25;;;;;;;20.30;43.39;100509.09;5066170;28;20056;-56
2022/08/21 05:50:24;;;;;;;60.10;46.00;;;;;;;20.41;42.67;100507.72;5050910;28;20017;-56
2022/08/21 05:52:49;;;;;;;61.67;46.00;;;;;;;20.52;42.92;100501.03;5070877;28;20088;-57
2022/08/21 05:55:15;;;;;;;60.28;45.92;;;;;;;20.59;42.57;100503.34;5073426;28;20198;-56
2022/08/21 05:57:41;;;;;;;60.97;45.33;;;;;;;20.63;41.01;100505.72;5078391;28;20130;-57
2022/08/21 06:00:12;;;;;;;59.00;43.85;;;;;;;20.75;40.42;100495.53;5068770;28;20025;-55
2022/08/21 06:02:38;;;;;;;58.17;44.50;;;;;;;20.93;41.30;100499.03;5060992;28;20040;-55
2022/08/21 06:05:04;;;;;;;60.22;43.00;;;;;;;21.08;41.18;100505.28;5064609;28;20028;-56
2022/08/21 06:07:30;;;;;;;54.80;41.00;;;;;;;20.99;39.72;100499.56;5084287;28;20028;-56
2022/08/21 06:09:56;;;;;;;56.45;41.75;;;;;;;21.20;39.46;100499.38;5067340;28;20020;-56
2022/08/21 06:12:21;;;;;;;48.83;39.42;;;;;;;21.40;40.24;100500.94;5064080;28;20025;-57
2022/08/21 06:14:47;;;;;;;56.13;40.20;;;;;;;21.29;37.99;100493.63;5070055;28;20205;-57
2022/08/21 06:17:14;;;;;;;50.67;38.50;;;;;;;21.47;38.81;100502.31;5083749;28;20314;-56
2022/08/21 06:19:40;;;;;;;52.30;39.03;;;;;;;21.47;37.33;100490.94;5083878;28;20066;-57
2022/08/21 06:22:06;;;;;;;52.90;39.22;;;;;;;21.53;37.81;100487.97;5083963;28;20020;-57
2022/08/21 06:24:32;;;;;;;55.58;40.33;;;;;;;21.77;38.20;100493.69;5059270;28;20029;-57
2022/08/21 06:26:58;;;;;;;52.65;37.65;;;;;;;21.92;38.82;100491.13;5043901;28;20021;-57
2022/08/21 06:29:24;;;;;;;54.67;38.35;;;;;;;21.95;37.64;100491.84;5054401;28;20037;-57
2022/08/21 06:31:51;;;;;;;53.10;37.83;;;;;;;21.80;37.81;100450.50;5063248;28;20039;-57
2022/08/21 06:34:17;;;;;;;50.75;39.38;;;;;;;21.97;36.77;100494.38;5063326;28;20029;-57
2022/08/21 06:36:44;;;;;;;49.72;37.60;;;;;;;21.93;36.59;100483.13;5063744;28;20029;-57
2022/08/21 06:39:09;;;;;;;48.25;38.05;;;;;;;21.92;36.62;100485.88;5063128;28;20048;-57
2022/08/21 06:41:35;;;;;;;49.13;38.20;;;;;;;22.11;36.33;100490.97;5063573;28;20321;-55
2022/08/21 06:44:01;;;;;;;56.97;37.75;;;;;;;22.23;36.10;100482.34;5063593;28;20087;-57
2022/08/21 06:46:28;;;;;;;53.28;36.67;;;;;;;22.15;35.87;100479.31;5070096;28;20314;-57
2022/08/21 06:48:55;;;;;;;49.90;35.95;;;;;;;22.35;36.75;100484.31;5048142;28;20049;-56
2022/08/21 06:51:22;;;;;;;49.50;37.95;;;;;;;22.44;36.21;100471.53;5043437;28;20048;-57
2022/08/21 06:53:48;;;;;;;49.30;34.75;;;;;;;22.56;37.16;100476.94;5043338;28;20029;-58
2022/08/21 06:56:14;;;;;;;45.28;35.85;;;;;;;22.67;36.05;100473.63;5061140;28;20155;-56
2022/08/21 06:58:39;;;;;;;48.40;35.63;;;;;;;22.64;35.14;100467.72;5063393;28;20032;-56
2022/08/21 07:01:05;;;;;;;50.65;36.63;;;;;;;22.81;35.74;100474.63;5046681;28;20029;-57
2022/08/21 07:03:35;;;;;;;49.80;37.13;;;;;;;22.67;35.19;100436.66;5054233;28;20040;-58
2022/08/21 07:06:01;;;;;;;49.80;37.75;;;;;;;22.90;35.07;100469.66;5063184;28;20160;-58
2022/08/21 07:08:28;;;;;;;49.63;37.67;;;;;;;23.10;35.42;100464.91;5060416;28;20029;-57
2022/08/21 07:10:57;;;;;;;57.78;40.13;;;;;;;23.24;34.64;100478.19;5043237;28;20025;-57
2022/08/21 07:13:23;;;;;;;47.33;35.85;;;;;;;23.37;35.43;100464.19;5081324;28;20021;-57
2022/08/21 07:15:49;;;;;;;44.17;34.75;;;;;;;23.18;33.38;100469.78;5054771;28;20052;-57
2022/08/21 07:18:15;;;;;;;46.97;36.05;;;;;;;23.29;33.28;100472.63;5052349;28;20037;-57
2022/08/21 07:20:41;;;;;;;46.55;36.08;;;;;;;23.41;34.10;100468.34;5052563;28;20043;-57
2022/08/21 07:23:27;;;;;;;43.42;35.58;;;;;;;23.56;33.51;100464.75;5076384;28;20036;-57
2022/08/21 07:25:53;;;;;;;47.30;34.08;;;;;;;23.67;33.29;100465.84;5043444;28;20199;-56
2022/08/21 07:28:19;;;;;;;39.78;33.15;;;;;;;23.80;32.97;100458.84;5044624;28;20056;-57
2022/08/21 07:30:46;;;;;;;46.72;33.38;;;;;;;23.78;31.82;100466.00;5062716;28;20095;-60
2022/08/21 07:33:11;;;;;;;40.03;31.85;;;;;;;23.88;32.11;100461.00;5062989;28;20078;-56
2022/08/21 07:35:38;;;;;;;38.90;31.38;;;;;;;23.86;31.58;100454.94;5062823;28;20025;-57
2022/08/21 07:38:03;;;;;;;43.92;32.90;;;;;;;23.90;32.37;100459.97;5062813;28;20025;-57
2022/08/21 07:40:29;;;;;;;45.75;34.33;;;;;;;24.10;32.25;100461.31;5064372;28;20057;-58
2022/08/21 07:42:55;;;;;;;41.53;32.05;;;;;;;24.15;33.04;100458.34;5052013;28;20029;-58
2022/08/21 07:45:24;;;;;;;43.85;33.00;;;;;;;24.19;31.82;100459.84;5046728;28;20052;-57
2022/08/21 07:47:50;;;;;;;45.80;31.48;;;;;;;24.18;31.90;100457.31;5071952;28;20039;-57
2022/08/21 07:50:16;;;;;;;50.05;32.88;;;;;;;24.18;31.78;100452.84;5084315;28;20039;-57
2022/08/21 07:52:43;;;;;;;43.92;30.80;;;;;;;24.17;30.82;100451.19;5046844;28;20053;-58
2022/08/21 07:55:12;;;;;;;37.85;29.30;;;;;;;24.00;30.63;100411.72;5055635;28;20044;-57
2022/08/21 07:57:38;;;;;;;42.33;28.60;;;;;;;24.19;31.25;100443.13;5077823;28;20032;-55
2022/08/21 08:00:07;;;;;;;40.25;29.90;;;;;;;24.07;29.80;100450.94;5086704;28;20346;-58
2022/08/21 08:02:33;;;;;;;44.92;30.95;;;;;;;24.32;30.90;100461.69;5086769;28;20024;-58
2022/08/21 08:05:04;;;;;;;40.58;29.98;;;;;;;24.18;29.16;100436.13;5086809;28;20039;-58
2022/08/21 08:07:30;;;;;;;35.70;28.70;;;;;;;24.44;29.74;100447.59;5064451;28;20496;-55
2022/08/21 08:09:56;;;;;;;37.30;28.55;;;;;;;24.58;30.60;100458.13;5051780;28;20040;-55
2022/08/21 08:12:22;;;;;;;40.47;29.05;;;;;;;24.55;29.24;100445.09;5066696;28;20263;-56
2022/08/21 08:14:47;;;;;;;38.08;28.10;;;;;;;24.60;29.64;100448.31;5075969;28;20026;-56
2022/08/21 08:17:13;;;;;;;38.40;28.67;;;;;;;24.68;29.59;100444.28;5052858;28;20032;-57
2022/08/21 08:19:39;;;;;;;37.60;29.45;;;;;;;24.61;29.54;100449.16;5050037;28;20033;-57
2022/08/21 08:22:14;;;;;;;39.42;28.67;;;;;;;24.49;29.17;100407.59;5078208;28;20036;-57
2022/08/21 08:24:40;;;;;;;39.97;29.92;;;;;;;24.67;30.14;100424.91;5086167;28;20024;-57
2022/08/21 08:27:05;;;;;;;38.47;28.27;;;;;;;24.86;29.57;100436.88;5060836;28;20082;-57
2022/08/21 08:29:31;;;;;;;37.15;26.00;;;;;;;24.90;28.40;100431.25;5060190;28;20028;-56
2022/08/21 08:31:57;;;;;;;35.60;25.25;;;;;;;24.99;28.44;100422.66;5065631;28;20025;-56
2022/08/21 08:34:23;;;;;;;35.30;25.58;;;;;;;24.99;27.58;100427.94;5063627;28;20013;-57
2022/08/21 08:36:48;;;;;;;36.00;26.77;;;;;;;25.10;27.78;100413.94;5065861;28;20039;-57
2022/08/21 08:39:14;;;;;;;35.47;25.45;;;;;;;25.32;28.33;100409.78;5064775;28;20033;-57
2022/08/21 08:41:41;;;;;;;36.20;25.17;;;;;;;25.31;27.80;100416.91;5064806;28;20396;-56
2022/08/21 08:44:07;;;;;;;36.72;23.92;;;;;;;25.30;27.59;100398.44;5065097;28;20221;-57
2022/08/21 08:46:43;;;;;;;29.42;21.65;;;;;;;25.26;26.67;100397.78;5059092;28;20025;-57
2022/08/21 08:49:15;;;;;;;33.22;23.73;;;;;;;25.10;26.78;100350.34;5060498;28;20025;-57
2022/08/21 08:51:55;;;;;;;31.90;22.70;;;;;;;25.51;26.47;100401.38;5062885;28;20035;-58
2022/08/21 08:54:36;;;;;;;34.33;23.85;;;;;;;25.46;26.74;100390.25;5061126;28;20028;-59
2022/08/21 08:57:07;;;;;;;29.25;21.70;;;;;;;25.36;26.90;100357.41;5056723;28;20033;-57
2022/08/21 08:59:48;;;;;;;30.38;22.20;;;;;;;25.69;27.12;100377.94;5066493;28;20252;-58
2022/08/21 09:02:16;;;;;;;32.20;22.48;;;;;;;25.97;26.50;100416.56;5059373;28;20027;-56
2022/08/21 09:04:45;;;;;;;30.98;21.42;;;;;;;25.82;25.74;100397.31;5062462;28;20021;-56
2022/08/21 09:07:48;;;;;;;29.27;20.85;;;;;;;26.06;25.37;100400.94;5060089;28;20038;-57
2022/08/21 09:10:22;;;;;;;34.15;23.73;;;;;;;25.83;25.46;100363.66;5062091;28;20056;-56
2022/08/21 09:13:08;;;;;;;29.75;21.83;;;;;;;26.16;25.44;100407.25;5062362;28;20025;-57
2022/08/21 09:15:51;;;;;;;30.70;21.98;;;;;;;26.20;25.69;100376.84;5059360;28;20230;-56
2022/08/21 09:18:37;;;;;;;31.33;22.65;;;;;;;26.31;25.19;100392.81;5060586;28;20025;-56
2022/08/21 09:21:28;;;;;;;28.60;19.85;;;;;;;25.86;24.50;100357.28;5058282;28;20095;-56
2022/08/21 09:24:24;;;;;;;36.28;22.20;;;;;;;26.22;24.62;100398.78;5059404;28;20044;-56
2022/08/21 09:27:09;;;;;;;32.95;22.48;;;;;;;26.00;25.15;100397.75;5065679;28;20071;-58
2022/08/21 09:29:38;;;;;;;35.70;24.33;;;;;;;26.23;25.67;100413.78;5055319;28;20325;-57
2022/08/21 09:32:29;;;;;;;26.33;20.85;;;;;;;26.26;24.98;100407.38;5059759;28;20044;-56
2022/08/21 09:35:06;;;;;;;29.20;21.52;;;;;;;26.17;24.76;100403.63;5061450;28;20082;-57
2022/08/21 09:37:44;;;;;;;37.90;22.83;;;;;;;26.27;25.56;100401.13;5061745;28;20266;-57
2022/08/21 09:40:25;;;;;;;28.85;21.02;;;;;;;26.13;25.22;100396.84;5060651;28;20049;-56
2022/08/21 09:42:56;;;;;;;29.02;18.30;;;;;;;26.07;24.38;100392.84;5060110;28;20390;-57
2022/08/21 09:45:22;;;;;;;26.95;19.70;;;;;;;25.93;24.77;100396.50;5065918;28;20025;-57
2022/08/21 09:47:47;;;;;;;23.80;17.33;;;;;;;25.86;24.54;100403.22;5059744;28;20087;-56
2022/08/21 09:50:18;;;;;;;25.17;17.20;;;;;;;25.79;24.20;100389.56;5063817;28;20044;-56
2022/08/21 09:52:48;;;;;;;25.80;17.80;;;;;;;25.82;24.31;100362.81;5062643;28;20021;-57
2022/08/21 09:58:07;;;;;;;29.02;18.55;;;;;;;26.12;24.17;100390.72;5060412;28;20218;-57
2022/08/21 10:00:34;;;;;;;27.90;18.40;;;;;;;25.99;24.43;100352.72;5061594;28;20016;-56
2022/08/21 10:03:10;;;;;;;26.25;20.27;;;;;;;26.01;24.33;100378.22;5060855;28;20063;-56
2022/08/21 10:05:37;;;;;;;26.90;19.08;;;;;;;26.22;24.86;100396.13;5057445;28;20067;-55
2022/08/21 10:08:04;;;;;;;25.92;18.77;;;;;;;26.41;25.97;100400.91;5063044;28;20056;-56
2022/08/21 10:10:31;;;;;;;27.35;19.02;;;;;;;26.49;25.62;100406.50;5063253;28;20028;-55
2022/08/21 10:13:17;;;;;;;24.75;19.00;;;;;;;26.39;25.58;100383.41;5062905;28;20032;-56
2022/08/21 10:16:03;;;;;;;25.25;18.77;;;;;;;26.66;25.58;100399.00;5065203;28;20088;-57
2022/08/21 10:18:47;;;;;;;23.55;18.13;;;;;;;26.38;24.40;100387.00;5065124;28;20037;-57
2022/08/21 10:21:43;;;;;;;23.27;16.80;;;;;;;26.14;24.14;100337.47;5061927;28;20325;-57
2022/08/21 10:24:32;;;;;;;26.92;17.90;;;;;;;26.57;24.51;100368.69;5061134;28;20028;-56
2022/08/21 10:27:15;;;;;;;22.50;16.27;;;;;;;26.53;23.46;100373.38;5059935;28;20024;-57
2022/08/21 10:29:49;;;;;;;24.60;14.85;;;;;;;26.56;23.56;100366.16;5061719;28;20021;-56
2022/08/21 10:32:45;;;;;;;24.27;15.88;;;;;;;26.56;23.92;100329.78;5061027;28;20096;-57
2022/08/21 10:35:42;;;;;;;19.30;14.27;;;;;;;26.72;23.99;100363.16;5063141;28;20029;-56
2022/08/21 10:38:19;;;;;;;23.55;14.93;;;;;;;26.79;24.48;100367.03;5052757;28;20031;-57
2022/08/21 10:40:58;;;;;;;19.15;14.20;;;;;;;26.87;24.66;100367.28;5043547;28;20052;-57
2022/08/21 10:43:39;;;;;;;26.80;15.45;;;;;;;26.76;24.13;100354.81;5043693;28;20056;-57
2022/08/21 10:46:23;;;;;;;21.13;15.50;;;;;;;26.77;24.62;100367.16;5049516;28;20325;-56
2022/08/21 10:49:06;;;;;;;24.80;17.13;;;;;;;26.39;24.21;100319.66;5050599;28;20029;-57
2022/08/21 10:51:50;;;;;;;25.08;16.58;;;;;;;26.40;23.98;100366.50;5053635;28;20336;-57
2022/08/21 10:54:22;;;;;;;21.98;15.82;;;;;;;26.25;24.85;100308.28;5063809;28;20020;-56
2022/08/21 10:56:54;;;;;;;25.45;19.25;;;;;;;26.49;24.80;100320.63;5058690;28;20353;-56
2022/08/21 10:59:33;;;;;;;25.55;16.48;;;;;;;26.51;23.70;100354.06;5058445;28;20408;-56
2022/08/21 11:02:11;;;;;;;24.10;14.80;;;;;;;26.40;24.27;100308.06;5046373;28;20048;-57
2022/08/21 11:04:42;;;;;;;21.25;14.30;;;;;;;26.54;24.81;100347.69;5059506;28;20043;-56
2022/08/21 11:07:32;;;;;;;16.92;14.23;;;;;;;26.70;25.35;100331.41;5062906;28;20029;-57
2022/08/21 11:10:10;;;;;;;26.42;15.65;;;;;;;26.51;24.82;100314.22;5062667;28;20356;-56
2022/08/21 11:12:39;;;;;;;19.02;13.98;;;;;;;26.81;24.90;100354.50;5060646;28;20283;-57
2022/08/21 11:15:31;;;;;;;25.80;14.68;;;;;;;26.83;25.02;100355.19;5068858;28;20025;-56
2022/08/21 11:18:22;;;;;;;19.08;12.90;;;;;;;26.78;24.20;100338.75;5063086;28;20104;-56
2022/08/21 11:21:25;;;;;;;22.15;15.80;;;;;;;26.70;24.68;100339.38;5042859;28;20096;-57